createdAt,value
2018-08-06T00:04:06.621Z,1.87
2018-08-06T00:09:10.116Z,4.05
2018-08-06T00:14:13.869Z,1.37
2018-08-06T00:19:17.417Z,0.80
2018-08-06T00:24:20.993Z,1.77
2018-08-06T00:29:24.517Z,3.45
2018-08-06T00:34:28.083Z,2.80
2018-08-06T00:39:31.614Z,2.67
2018-08-06T00:44:35.062Z,1.57
2018-08-06T00:49:38.612Z,1.40
2018-08-06T00:54:42.085Z,1.35
2018-08-06T00:59:45.558Z,4.55
2018-08-06T01:04:49.109Z,1.92
2018-08-06T01:09:52.677Z,1.70
2018-08-06T01:14:56.246Z,2.08
2018-08-06T01:19:59.809Z,1.50
2018-08-06T01:25:03.355Z,1.67
2018-08-06T01:30:09.257Z,2.66
2018-08-06T01:35:12.984Z,3.46
2018-08-06T01:40:16.488Z,1.60
2018-08-06T01:45:19.979Z,2.15
2018-08-06T01:50:23.525Z,1.90
2018-08-06T01:55:27.037Z,1.72
2018-08-06T02:00:30.519Z,3.72
2018-08-06T02:05:34.121Z,1.77
2018-08-06T02:10:37.640Z,4.22
2018-08-06T02:15:41.142Z,1.22
2018-08-06T02:20:44.701Z,5.25
2018-08-06T02:25:48.188Z,1.70
2018-08-06T02:30:51.764Z,2.20
2018-08-06T02:35:55.322Z,1.72
2018-08-06T02:40:58.805Z,2.33
2018-08-06T02:46:02.332Z,1.62
2018-08-06T02:51:05.912Z,2.00
2018-08-06T02:56:09.486Z,1.72
2018-08-06T03:01:13.018Z,0.95
2018-08-06T03:06:16.636Z,1.85
2018-08-06T03:11:20.157Z,1.42
2018-08-06T03:16:23.698Z,1.55
2018-08-06T03:21:27.266Z,2.17
2018-08-06T03:26:30.907Z,1.62
2018-08-06T03:31:34.442Z,2.70
2018-08-06T03:36:37.953Z,2.70
2018-08-06T03:41:41.386Z,1.75
2018-08-06T03:46:44.940Z,4.22
2018-08-06T03:51:48.502Z,1.42
2018-08-06T03:56:52.037Z,5.72
2018-08-06T04:01:55.610Z,2.00
2018-08-06T04:06:59.164Z,4.37
2018-08-06T04:12:02.839Z,1.87
2018-08-06T04:17:06.570Z,1.92
2018-08-06T04:22:10.123Z,2.22
2018-08-06T04:27:13.715Z,3.08
2018-08-06T04:32:17.249Z,2.98
2018-08-06T04:37:20.785Z,3.45
2018-08-06T04:42:24.422Z,3.80
2018-08-06T04:47:27.918Z,4.10
2018-08-06T04:52:31.469Z,4.17
2018-08-06T04:57:35.021Z,3.08
2018-08-06T05:02:38.481Z,7.00
2018-08-06T05:07:42.016Z,3.10
2018-08-06T05:12:45.627Z,5.95
2018-08-06T05:17:49.111Z,2.77
2018-08-06T05:22:52.565Z,2.50
2018-08-06T05:27:56.088Z,6.67
2018-08-06T05:32:59.625Z,1.98
2018-08-06T05:38:03.129Z,2.20
2018-08-06T05:43:06.873Z,2.85
2018-08-06T05:48:10.452Z,2.47
2018-08-06T05:53:14.038Z,2.87
2018-08-06T05:58:17.680Z,2.35
2018-08-06T06:03:21.277Z,6.53
2018-08-06T06:08:24.849Z,3.50
2018-08-06T06:13:28.526Z,3.15
2018-08-06T06:18:32.142Z,2.45
2018-08-06T06:23:35.593Z,1.90
2018-08-06T06:28:39.185Z,2.52
2018-08-06T06:33:42.846Z,2.27
2018-08-06T06:38:46.604Z,2.67
2018-08-06T06:43:50.140Z,2.95
2018-08-06T06:48:54.195Z,4.08
2018-08-06T06:53:57.682Z,4.37
2018-08-06T06:59:01.225Z,3.05
2018-08-06T07:04:04.781Z,3.55
2018-08-06T07:09:09.798Z,2.45
2018-08-06T07:14:13.374Z,4.42
2018-08-06T07:19:17.264Z,3.35
2018-08-06T07:24:20.818Z,2.80
2018-08-06T07:29:24.362Z,2.17
2018-08-06T07:34:27.879Z,2.85
2018-08-06T07:39:31.430Z,4.67
2018-08-06T07:44:34.967Z,2.80
2018-08-06T07:49:38.583Z,3.95
2018-08-06T07:54:42.013Z,2.12
2018-08-06T07:59:45.642Z,1.72
2018-08-06T08:04:49.192Z,2.90
2018-08-06T08:09:52.671Z,7.60
2018-08-06T08:14:56.256Z,1.90
2018-08-06T08:19:59.841Z,2.37
2018-08-06T08:25:04.544Z,1.72
2018-08-06T08:30:09.060Z,1.32
2018-08-06T08:35:13.573Z,1.83
2018-08-06T08:40:18.792Z,1.43
2018-08-06T08:45:22.483Z,2.13
2018-08-06T08:50:26.127Z,5.10
2018-08-06T08:55:29.788Z,1.30
2018-08-06T09:00:33.344Z,3.00
2018-08-06T09:05:37.391Z,3.25
2018-08-06T09:10:40.829Z,3.62
2018-08-06T09:15:44.487Z,1.37
2018-08-06T09:20:48.165Z,3.15
2018-08-06T09:25:51.751Z,5.12
2018-08-06T09:30:55.332Z,4.53
2018-08-06T09:35:58.865Z,6.83
2018-08-06T09:41:02.510Z,1.90
2018-08-06T09:46:06.525Z,2.90
2018-08-06T09:51:10.094Z,3.37
2018-08-06T09:56:13.653Z,5.12
2018-08-06T10:01:22.435Z,3.77
2018-08-06T10:06:26.053Z,3.70
2018-08-06T10:11:29.480Z,3.77
2018-08-06T10:16:33.005Z,1.95
2018-08-06T10:21:36.873Z,1.50
2018-08-06T10:26:40.468Z,1.42
2018-08-06T10:31:44.013Z,2.05
2018-08-06T10:36:47.614Z,2.60
2018-08-06T10:41:51.200Z,1.45
2018-08-06T10:46:54.613Z,1.22
2018-08-06T10:51:58.097Z,1.98
2018-08-06T10:57:01.621Z,1.62
2018-08-06T11:02:05.245Z,2.10
2018-08-06T11:07:08.874Z,1.52
2018-08-06T11:12:12.517Z,1.40
2018-08-06T11:17:16.134Z,1.32
2018-08-06T11:22:19.822Z,2.22
2018-08-06T11:27:23.573Z,3.98
2018-08-06T11:32:27.296Z,1.98
2018-08-06T11:37:31.070Z,1.85
2018-08-06T11:42:34.702Z,1.65
2018-08-06T11:47:38.525Z,1.02
2018-08-06T12:03:57.976Z,3.92
2018-08-06T12:09:01.812Z,3.75
2018-08-06T12:14:05.706Z,7.25
2018-08-06T12:19:09.381Z,1.90
2018-08-06T12:24:13.078Z,2.90
2018-08-06T12:29:23.580Z,1.77
2018-08-06T12:34:27.151Z,5.23
2018-08-06T12:39:30.749Z,1.27
2018-08-06T12:44:34.392Z,1.50
2018-08-06T12:49:46.645Z,3.10
2018-08-06T12:54:54.891Z,1.82
2018-08-06T12:59:59.362Z,2.27
2018-08-06T13:05:07.080Z,2.20
2018-08-06T13:10:10.772Z,1.27
2018-08-06T13:15:15.207Z,2.80
2018-08-06T13:20:18.784Z,4.87
2018-08-06T13:25:22.498Z,3.27
2018-08-06T13:30:36.204Z,1.87
2018-08-06T13:35:49.349Z,2.25
2018-08-06T13:40:58.890Z,4.42
2018-08-06T14:12:49.857Z,2.27
2018-08-06T14:17:53.729Z,5.17
2018-08-06T14:22:57.332Z,2.90
2018-08-06T14:28:01.305Z,1.40
2018-08-06T14:33:05.157Z,2.05
2018-08-06T14:38:08.765Z,3.33
2018-08-06T14:43:12.654Z,3.60
2018-08-06T14:48:16.351Z,2.40
2018-08-06T14:53:20.002Z,4.00
2018-08-06T14:58:23.602Z,2.35
2018-08-06T15:03:27.485Z,2.87
2018-08-06T15:08:31.546Z,2.15
2018-08-06T15:13:35.113Z,1.95
2018-08-06T15:18:38.658Z,2.65
2018-08-06T15:23:42.193Z,2.85
2018-08-06T15:28:45.895Z,1.02
2018-08-06T15:33:49.902Z,2.02
2018-08-06T15:38:53.566Z,1.82
2018-08-06T15:43:57.200Z,3.33
2018-08-06T15:49:00.862Z,3.70
2018-08-06T15:54:05.126Z,2.02
2018-08-06T15:59:08.961Z,1.87
2018-08-06T16:04:12.706Z,3.27
2018-08-06T16:09:16.247Z,9.48
2018-08-06T16:14:19.969Z,15.72
2018-08-06T16:19:23.537Z,10.85
2018-08-06T16:24:27.229Z,13.83
2018-08-06T16:29:30.745Z,15.03
2018-08-06T16:34:34.453Z,13.08
2018-08-06T16:39:38.218Z,15.03
2018-08-06T16:44:41.779Z,11.68
2018-08-06T16:49:45.543Z,11.35
2018-08-06T16:54:49.237Z,12.37
2018-08-06T16:59:52.835Z,10.18
2018-08-06T17:04:56.358Z,11.48
2018-08-06T17:10:00.744Z,7.73
2018-08-06T17:15:04.463Z,8.15
2018-08-06T17:20:12.888Z,13.18
2018-08-06T17:25:16.717Z,11.28
2018-08-06T17:30:20.539Z,8.93
2018-08-06T17:35:24.300Z,11.90
2018-08-06T17:40:28.113Z,7.60
2018-08-06T17:45:31.885Z,9.53
2018-08-06T17:50:35.995Z,7.10
2018-08-06T17:55:40.617Z,7.33
2018-08-06T18:00:44.806Z,9.00
2018-08-06T18:05:48.473Z,6.17
2018-08-06T18:10:52.268Z,9.13
2018-08-06T18:15:56.159Z,5.37
2018-08-06T18:21:00.123Z,6.62
2018-08-06T18:26:04.356Z,11.33
2018-08-06T18:31:08.405Z,7.12
2018-08-06T18:36:11.926Z,4.70
2018-08-06T18:41:16.616Z,6.10
2018-08-06T18:46:20.155Z,6.15
2018-08-06T18:51:23.782Z,6.00
2018-08-06T18:56:27.334Z,4.65
2018-08-06T19:01:31.020Z,4.22
2018-08-06T19:06:34.895Z,4.25
2018-08-06T19:11:38.569Z,4.55
2018-08-06T19:16:42.397Z,2.47
2018-08-06T19:21:46.564Z,4.37
2018-08-06T19:26:50.758Z,1.82
2018-08-06T19:31:55.302Z,3.35
2018-08-06T19:37:04.814Z,2.77
2018-08-06T19:42:08.379Z,4.62
2018-08-06T19:47:12.643Z,1.13
2018-08-06T19:52:16.385Z,1.30
2018-08-06T19:57:20.130Z,2.85
2018-08-06T20:02:23.819Z,1.92
2018-08-06T20:07:27.333Z,4.70
2018-08-06T20:12:31.582Z,5.25
2018-08-06T20:17:35.122Z,3.05
2018-08-06T20:22:38.770Z,2.12
2018-08-06T20:27:42.350Z,2.77
2018-08-06T20:32:45.834Z,1.62
2018-08-06T20:37:49.428Z,1.20
2018-08-06T20:42:52.954Z,1.95
2018-08-06T20:47:56.501Z,1.40
2018-08-06T20:53:00.608Z,3.08
2018-08-06T20:58:04.346Z,2.92
2018-08-06T21:03:08.132Z,2.45
2018-08-06T21:08:11.668Z,2.92
2018-08-06T21:13:15.165Z,2.50
2018-08-06T21:18:18.682Z,1.20
2018-08-06T21:23:22.246Z,3.37
2018-08-06T21:28:25.985Z,1.82
2018-08-06T21:33:29.577Z,2.12
2018-08-06T21:38:33.192Z,3.67
2018-08-06T21:43:36.880Z,2.72
2018-08-06T21:48:40.617Z,1.92
2018-08-06T21:53:44.343Z,2.67
2018-08-06T21:58:47.887Z,2.30
2018-08-06T22:03:51.567Z,5.87
2018-08-06T22:08:55.081Z,1.47
2018-08-06T22:13:58.678Z,3.40
2018-08-06T22:19:02.324Z,3.10
2018-08-06T22:24:06.433Z,3.50
2018-08-06T22:29:10.409Z,3.35
2018-08-06T22:34:14.319Z,1.20
2018-08-06T22:39:18.118Z,1.65
2018-08-06T22:44:21.945Z,4.67
2018-08-06T22:49:25.669Z,1.57
2018-08-06T22:54:29.232Z,2.58
2018-08-06T22:59:32.970Z,1.92
2018-08-06T23:04:36.622Z,3.08
2018-08-06T23:09:40.261Z,1.00
2018-08-06T23:14:43.801Z,2.85
2018-08-06T23:19:47.377Z,3.20
2018-08-06T23:24:51.013Z,3.95
2018-08-06T23:29:54.609Z,1.52
2018-08-06T23:34:58.253Z,1.90
2018-08-06T23:40:01.867Z,2.37
2018-08-06T23:45:07.014Z,1.30
2018-08-06T23:50:12.534Z,1.00
2018-08-06T23:55:17.828Z,1.87
